.
WxDataArchive / Data Records for 2009-09-11
2009-09-10 September 2009 2009-09-12

Data Records for Friday, 11 September 2009

Time	Temp	Chill	HIndex	Humid	Dewpt	 Wind 	HiWind	WindDir	Rain 	Barom 
-----	----	-----	------	-----	-----	------	------	-------	-----	----- 
00:00	64.7	64.7	64.7	86	60.4	0	1	90	0.00	30.215 
00:05	64.5	64.5	64.5	86	60.2	0	2	90	0.00	30.215 
00:10	64.3	64.3	64.3	86	60.0	0	1	90	0.00	30.215 
00:15	64.2	64.2	64.2	87	60.2	0	1	90	0.00	30.219 
00:20	64.0	64.0	64.0	87	60.0	0	1	90	0.00	30.219 
00:25	63.9	63.9	63.9	87	59.9	0	0	---	0.00	30.219 
00:30	63.9	63.9	63.9	88	60.3	0	1	90	0.00	30.220 
00:35	63.7	63.7	63.7	88	60.1	0	1	90	0.00	30.220 
00:40	63.5	63.5	63.5	88	59.9	0	0	---	0.00	30.220 
00:45	63.4	63.4	63.4	88	59.8	0	0	---	0.00	30.221 
00:50	63.4	63.4	63.4	89	60.1	0	1	90	0.00	30.221 
00:55	63.4	63.4	63.4	89	60.1	0	1	90	0.00	30.221 
01:00	63.2	63.2	63.2	89	59.9	0	0	---	0.00	30.218 
01:05	63.2	63.2	63.2	89	59.9	0	2	90	0.00	30.218 
01:10	63.1	63.1	63.1	89	59.8	0	0	---	0.00	30.218 
01:15	63.1	63.1	63.1	89	59.8	0	1	90	0.00	30.216 
01:20	63.1	63.1	63.1	89	59.8	0	1	90	0.00	30.216 
01:25	63.1	63.1	63.1	90	60.1	0	2	90	0.00	30.216 
01:30	62.9	62.9	62.9	90	59.9	0	1	90	0.00	30.216 
01:35	62.9	62.9	62.9	89	59.6	0	2	90	0.00	30.216 
01:40	62.9	62.9	62.9	89	59.6	0	1	90	0.00	30.216 
01:45	62.9	62.9	62.9	89	59.6	0	1	90	0.00	30.214 
01:50	62.9	62.9	62.9	90	59.9	0	2	90	0.00	30.214 
01:55	62.9	62.9	62.9	89	59.6	1	3	90	0.00	30.214 
02:00	62.7	62.7	62.7	89	59.4	0	3	90	0.00	30.211 
02:05	62.7	62.7	62.7	89	59.4	0	1	90	0.00	30.211 
02:10	62.6	62.6	62.6	90	59.6	0	2	90	0.00	30.211 
02:15	62.6	62.6	62.6	90	59.6	0	2	90	0.00	30.209 
02:20	62.4	62.4	62.4	90	59.4	0	2	90	0.00	30.209 
02:25	62.3	62.3	62.3	90	59.3	0	2	90	0.00	30.209 
02:30	62.3	62.3	62.3	90	59.3	0	2	90	0.00	30.210 
02:35	62.1	62.1	62.1	90	59.1	1	3	90	0.00	30.210 
02:40	62.0	62.0	62.0	91	59.3	0	1	90	0.00	30.210 
02:45	61.8	61.8	61.8	91	59.1	0	1	90	0.00	30.209 
02:50	61.6	61.6	61.6	91	58.9	0	1	90	0.00	30.209 
02:55	61.6	61.6	61.6	91	58.9	0	1	90	0.00	30.209 
03:00	61.5	61.5	61.5	91	58.8	0	2	90	0.00	30.208 
03:05	61.3	61.3	61.3	91	58.6	0	0	---	0.00	30.208 
03:10	61.2	61.2	61.2	92	58.9	0	1	90	0.00	30.208 
03:15	61.0	61.0	61.0	92	58.7	0	1	90	0.00	30.206 
03:20	60.9	60.9	60.9	92	58.6	0	1	90	0.00	30.206 
03:25	60.7	60.7	60.7	92	58.4	0	1	90	0.00	30.206 
03:30	60.5	60.5	60.5	92	58.2	0	0	---	0.00	30.205 
03:35	60.4	60.4	60.4	92	58.1	0	0	---	0.00	30.205 
03:40	60.2	60.2	60.2	92	57.9	0	0	---	0.00	30.205 
03:45	59.9	59.9	59.9	92	57.6	0	0	---	0.00	30.202 
03:50	59.8	59.8	59.8	92	57.5	0	0	---	0.00	30.202 
03:55	59.5	59.5	59.5	92	57.2	0	0	---	0.00	30.202 
04:00	59.3	59.3	59.3	92	57.0	0	0	---	0.00	30.205 
04:05	59.2	59.2	59.2	93	57.2	0	0	---	0.00	30.205 
04:10	59.0	59.0	59.0	93	57.0	0	0	---	0.00	30.205 
04:15	58.9	58.9	58.9	93	56.9	0	0	---	0.00	30.202 
04:20	58.9	58.9	58.9	93	56.9	0	0	---	0.00	30.202 
04:25	58.7	58.7	58.7	93	56.7	0	0	---	0.00	30.202 
04:30	58.4	58.4	58.4	93	56.4	0	0	---	0.00	30.207 
04:35	58.4	58.4	58.4	93	56.4	0	0	---	0.00	30.207 
04:40	58.3	58.3	58.3	94	56.6	0	0	---	0.00	30.207 
04:45	58.3	58.3	58.3	94	56.6	0	0	---	0.00	30.207 
04:50	58.3	58.3	58.3	94	56.6	0	0	---	0.00	30.207 
04:55	58.3	58.3	58.3	94	56.6	0	0	---	0.00	30.207 
05:00	58.3	58.3	58.3	94	56.6	0	0	---	0.00	30.208 
05:05	58.1	58.1	58.1	94	56.4	0	0	---	0.00	30.208 
05:10	58.0	58.0	58.0	94	56.3	0	0	---	0.00	30.208 
05:15	57.8	57.8	57.8	94	56.1	0	0	---	0.00	30.208 
05:20	57.8	57.8	57.8	94	56.1	0	0	---	0.00	30.208 
05:25	57.8	57.8	57.8	95	56.4	0	0	---	0.00	30.208 
05:30	57.6	57.6	57.6	95	56.2	0	0	---	0.00	30.207 
05:35	57.5	57.5	57.5	95	56.1	0	0	---	0.00	30.207 
05:40	57.5	57.5	57.5	95	56.1	0	0	---	0.00	30.207 
05:45	57.5	57.5	57.5	95	56.1	0	0	---	0.00	30.210 
05:50	57.5	57.5	57.5	95	56.1	0	0	---	0.00	30.210 
05:55	57.5	57.5	57.5	95	56.1	0	0	---	0.00	30.210 
06:00	57.3	57.3	57.3	95	55.9	0	0	---	0.00	30.212 
06:05	57.3	57.3	57.3	95	55.9	0	0	---	0.00	30.212 
06:10	57.2	57.2	57.2	95	55.8	0	0	---	0.00	30.212 
06:15	57.2	57.2	57.2	95	55.8	0	0	---	0.00	30.215 
06:20	57.2	57.2	57.2	95	55.8	0	0	---	0.00	30.215 
06:25	57.2	57.2	57.2	95	55.8	0	0	---	0.00	30.215 
06:30	57.2	57.2	57.2	95	55.8	0	0	---	0.00	30.214 
06:35	57.2	57.2	57.2	96	56.1	0	0	---	0.00	30.214 
06:40	57.2	57.2	57.2	96	56.1	0	0	---	0.00	30.214 
06:45	57.0	57.0	57.0	96	55.9	0	0	---	0.00	30.215 
06:50	57.0	57.0	57.0	96	55.9	0	0	---	0.00	30.215 
06:55	57.0	57.0	57.0	96	55.9	0	0	---	0.00	30.215 
07:00	56.9	56.9	56.9	96	55.8	0	0	---	0.00	30.216 
07:05	56.9	56.9	56.9	96	55.8	0	0	---	0.00	30.216 
07:10	56.9	56.9	56.9	96	55.8	0	0	---	0.00	30.216 
07:15	57.0	57.0	57.0	96	55.9	0	1	90	0.00	30.222 
07:20	57.2	57.2	57.2	96	56.1	0	0	---	0.00	30.222 
07:25	57.3	57.3	57.3	96	56.2	0	1	90	0.00	30.222 
07:30	57.5	57.5	57.5	96	56.4	0	1	90	0.00	30.221 
07:35	57.5	57.5	57.5	96	56.4	0	0	---	0.00	30.221 
07:40	57.5	57.5	57.5	96	56.4	0	0	---	0.00	30.221 
07:45	57.5	57.5	57.5	96	56.4	0	0	---	0.00	30.220 
07:50	57.8	57.8	57.8	96	56.7	0	2	90	0.00	30.220 
07:55	58.4	58.4	58.4	96	57.3	0	2	90	0.00	30.220 
08:00	58.7	58.7	58.7	96	57.6	0	2	90	0.00	30.218 
08:05	59.0	59.0	59.0	96	57.9	0	3	90	0.00	30.218 
08:10	59.2	59.2	59.2	96	58.1	0	1	90	0.00	30.218 
08:15	59.6	59.6	59.6	96	58.5	0	2	90	0.00	30.217 
08:20	59.9	59.9	59.9	96	58.8	0	1	90	0.00	30.217 
08:25	60.1	60.1	60.1	96	59.0	0	3	135	0.00	30.217 
08:30	60.2	60.2	60.2	96	59.1	0	2	135	0.00	30.218 
08:35	60.2	60.2	60.2	96	59.1	1	5	112	0.00	30.218 
08:40	60.1	60.1	60.1	96	59.0	1	5	112	0.00	30.218 
08:45	60.2	60.2	60.2	96	59.1	0	2	90	0.00	30.219 
08:50	60.4	60.4	60.4	96	59.3	1	3	90	0.00	30.219 
08:55	60.5	60.5	60.5	96	59.4	0	3	112	0.00	30.219 
09:00	60.7	60.7	60.7	95	59.3	0	2	112	0.00	30.225 
09:05	60.9	60.9	60.9	95	59.5	0	2	112	0.00	30.225 
09:10	61.0	61.0	61.0	95	59.6	1	3	112	0.00	30.225 
09:15	61.3	61.3	61.3	95	59.9	0	3	112	0.00	30.218 
09:20	61.6	61.6	61.6	94	59.9	0	1	112	0.00	30.218 
09:25	62.0	62.0	62.0	94	60.2	0	3	112	0.00	30.218 
09:30	62.1	62.1	62.1	92	59.7	1	4	112	0.00	30.216 
09:35	62.3	62.3	62.3	91	59.6	1	6	90	0.00	30.216 
09:40	62.7	62.7	62.7	90	59.7	1	4	90	0.00	30.216 
09:45	63.1	63.1	63.1	88	59.5	1	3	90	0.00	30.213 
09:50	63.5	63.5	63.5	87	59.6	1	3	90	0.00	30.213 
09:55	64.0	64.0	64.0	86	59.7	0	2	90	0.00	30.213 
10:00	64.7	64.7	64.7	85	60.1	0	2	90	0.00	30.211 
10:05	65.5	65.5	65.5	81	59.5	1	3	90	0.00	30.211 
10:10	66.3	66.3	66.3	79	59.6	1	2	90	0.00	30.211 
10:15	66.9	66.9	66.9	77	59.4	1	2	90	0.00	30.213 
10:20	67.6	67.6	67.6	77	60.1	1	3	90	0.00	30.213 
10:25	67.9	67.9	67.9	75	59.7	1	4	90	0.00	30.213 
10:30	68.3	68.3	68.3	77	60.8	1	3	90	0.00	30.212 
10:35	68.6	68.6	68.6	73	59.6	2	4	112	0.00	30.212 
10:40	68.9	68.9	68.9	72	59.5	1	3	112	0.00	30.212 
10:45	69.6	69.6	69.6	71	59.8	1	4	112	0.00	30.208 
10:50	70.1	70.1	70.1	73	61.0	1	3	112	0.00	30.208 
10:55	70.4	70.4	70.4	69	59.7	1	4	112	0.00	30.208 
11:00	70.9	70.9	70.9	66	59.0	0	3	90	0.00	30.213 
11:05	71.5	71.5	71.5	69	60.8	0	2	90	0.00	30.213 
11:10	71.8	71.8	71.8	63	58.5	2	4	90	0.00	30.213 
11:15	72.0	72.0	72.0	65	59.6	1	4	90	0.00	30.210 
11:20	72.1	72.1	72.1	69	61.4	1	4	112	0.00	30.210 
11:25	72.5	72.5	72.5	67	60.9	1	4	112	0.00	30.210 
11:30	72.7	72.7	72.7	66	60.7	1	4	112	0.00	30.203 
11:35	73.0	73.0	73.0	63	59.6	2	4	90	0.00	30.203 
11:40	73.3	73.3	73.3	65	60.8	1	3	90	0.00	30.203 
11:45	73.5	73.5	73.5	62	59.7	2	4	112	0.00	30.203 
11:50	73.5	73.5	73.5	64	60.6	2	5	90	0.00	30.203 
11:55	73.7	73.7	73.7	63	60.3	2	6	90	0.00	30.203 
12:00	74.0	74.0	74.0	63	60.6	1	5	90	0.00	30.202 
12:05	74.6	74.6	74.6	63	61.2	1	4	112	0.00	30.202 
12:10	75.1	75.1	77.3	62	61.2	1	4	112	0.00	30.202 
12:15	75.4	75.4	77.6	59	60.1	1	5	112	0.00	30.202 
12:20	75.4	75.4	77.6	59	60.1	2	5	112	0.00	30.202 
12:25	75.6	75.6	77.8	57	59.3	1	4	112	0.00	30.202 
12:30	75.4	75.4	77.6	59	60.1	2	10	112	0.00	30.194 
12:35	75.3	75.3	77.5	60	60.4	2	5	112	0.00	30.194 
12:40	75.4	75.4	77.6	59	60.1	1	4	90	0.00	30.194 
12:45	75.4	75.4	77.5	62	61.5	3	6	112	0.00	30.192 
12:50	75.4	75.4	77.7	58	59.6	2	5	135	0.00	30.192 
12:55	75.4	75.4	77.7	58	59.6	2	7	90	0.00	30.192 
13:00	75.4	75.4	77.7	58	59.6	2	5	90	0.00	30.190 
13:05	75.8	75.8	77.9	59	60.4	1	6	135	0.00	30.190 
13:10	76.1	76.1	78.1	56	59.2	2	5	112	0.00	30.190 
13:15	76.0	76.0	78.1	55	58.6	2	5	112	0.00	30.185 
13:20	75.8	75.8	77.9	59	60.4	2	5	90	0.00	30.185 
13:25	76.0	76.0	78.1	56	59.2	2	7	112	0.00	30.185 
13:30	76.0	76.0	78.0	58	60.1	2	7	90	0.00	30.179 
13:35	76.3	76.3	78.3	57	59.9	2	6	90	0.00	30.179 
13:40	76.1	76.1	78.1	55	58.7	3	7	112	0.00	30.179 
13:45	76.1	76.1	78.1	54	58.2	3	9	90	0.00	30.177 
13:50	75.6	75.6	77.8	58	59.8	2	7	90	0.00	30.177 
13:55	75.8	75.8	77.9	56	59.0	2	5	90	0.00	30.177 
14:00	76.3	76.3	78.3	56	59.4	2	6	112	0.00	30.174 
14:05	76.3	76.3	78.3	54	58.4	2	10	90	0.00	30.174 
14:10	76.0	76.0	78.0	58	60.1	1	5	90	0.00	30.174 
14:15	75.8	75.8	77.9	57	59.5	1	5	90	0.00	30.173 
14:20	75.3	75.3	77.7	56	58.5	2	5	90	0.00	30.173 
14:25	75.1	75.1	77.4	60	60.2	1	5	90	0.00	30.173 
14:30	75.4	75.4	77.7	56	58.6	1	3	90	0.00	30.165 
14:35	76.0	76.0	78.1	55	58.6	1	3	90	0.00	30.165 
14:40	76.7	76.7	78.5	57	60.3	2	4	112	0.00	30.165 
14:45	76.7	76.7	78.4	50	56.6	3	6	112	0.00	30.160 
14:50	76.7	76.7	78.5	55	59.3	1	4	112	0.00	30.160 
14:55	76.7	76.7	78.4	49	56.1	2	5	90	0.00	30.160 
15:00	76.5	76.5	78.3	49	55.9	2	9	90	0.00	30.149 
15:05	76.5	76.5	78.3	51	57.0	2	5	112	0.00	30.149 
15:10	76.7	76.7	78.5	52	57.7	2	7	112	0.00	30.149 
15:15	76.7	76.7	78.5	53	58.3	2	6	112	0.00	30.147 
15:20	77.0	77.0	78.7	53	58.5	1	4	112	0.00	30.147 
15:25	77.2	77.2	78.7	51	57.6	1	4	112	0.00	30.147 
15:30	77.4	77.4	78.8	50	57.3	1	3	68	0.00	30.145 
15:35	77.2	77.2	78.5	45	54.2	2	6	112	0.00	30.145 
15:40	77.0	77.0	78.5	46	54.6	2	6	90	0.00	30.145 
15:45	77.2	77.2	78.7	49	56.5	1	4	90	0.00	30.138 
15:50	77.2	77.2	78.8	52	58.2	1	3	90	0.00	30.138 
15:55	77.2	77.2	78.7	49	56.5	2	5	112	0.00	30.138 
16:00	77.6	77.6	79.0	50	57.5	0	3	112	0.00	30.132 
16:05	77.6	77.6	78.8	47	55.8	1	4	112	0.00	30.132 
16:10	77.7	77.7	79.2	53	59.2	1	4	112	0.00	30.132 
16:15	77.6	77.6	79.0	51	58.0	1	4	112	0.00	30.130 
16:20	77.4	77.4	78.7	46	55.0	1	6	90	0.00	30.130 
16:25	77.4	77.4	78.7	47	55.6	2	5	112	0.00	30.130 
16:30	77.2	77.2	78.6	46	54.8	1	5	90	0.00	30.131 
16:35	77.2	77.2	78.6	46	54.8	1	3	90	0.00	30.131 
16:40	77.2	77.2	78.6	46	54.8	0	2	90	0.00	30.131 
16:45	77.2	77.2	78.6	47	55.4	1	4	112	0.00	30.124 
16:50	77.0	77.0	78.6	49	56.4	1	3	112	0.00	30.124 
16:55	77.2	77.2	78.7	49	56.5	0	2	112	0.00	30.124 
17:00	77.2	77.2	78.7	50	57.1	1	3	112	0.00	30.119 
17:05	77.0	77.0	78.5	48	55.8	1	4	112	0.00	30.119 
17:10	77.0	77.0	78.6	50	56.9	1	6	90	0.00	30.119 
17:15	76.8	76.8	78.5	50	56.7	1	3	68	0.00	30.118 
17:20	76.7	76.7	78.4	49	56.1	1	4	68	0.00	30.118 
17:25	76.7	76.7	78.3	46	54.3	2	5	112	0.00	30.118 
17:30	76.7	76.7	78.4	50	56.6	1	3	112	0.00	30.116 
17:35	76.5	76.5	78.3	50	56.5	1	4	112	0.00	30.116 
17:40	76.5	76.5	78.4	53	58.1	3	7	112	0.00	30.116 
17:45	76.3	76.3	78.2	53	57.9	3	7	90	0.00	30.118 
17:50	75.6	75.6	77.9	54	57.8	4	7	112	0.00	30.118 
17:55	75.1	75.1	77.5	57	58.8	2	7	90	0.00	30.118 
18:00	74.7	74.7	74.7	56	57.9	2	5	90	0.00	30.122 
18:05	74.4	74.4	74.4	56	57.7	2	5	112	0.00	30.122 
18:10	74.2	74.2	74.2	57	58.0	1	3	90	0.00	30.122 
18:15	74.0	74.0	74.0	58	58.3	1	4	90	0.00	30.127 
18:20	73.9	73.9	73.9	58	58.2	1	4	112	0.00	30.127 
18:25	73.9	73.9	73.9	59	58.7	1	3	112	0.00	30.127 
18:30	73.7	73.7	73.7	59	58.5	1	3	112	0.00	30.125 
18:35	73.5	73.5	73.5	58	57.8	1	3	112	0.00	30.125 
18:40	73.5	73.5	73.5	59	58.3	0	2	112	0.00	30.125 
18:45	73.3	73.3	73.3	60	58.6	0	2	112	0.00	30.128 
18:50	73.3	73.3	73.3	62	59.5	0	3	112	0.00	30.128 
18:55	73.3	73.3	73.3	62	59.5	0	1	112	0.00	30.128 
19:00	73.2	73.2	73.2	60	58.5	1	3	112	0.00	30.130 
19:05	73.3	73.3	73.3	61	59.0	0	2	112	0.00	30.130 
19:10	73.2	73.2	73.2	62	59.4	0	0	---	0.00	30.130 
19:15	72.8	72.8	72.8	62	59.0	0	0	---	0.00	30.131 
19:20	72.5	72.5	72.5	63	59.2	0	0	---	0.00	30.131 
19:25	72.1	72.1	72.1	63	58.8	0	0	---	0.00	30.131 
19:30	71.8	71.8	71.8	63	58.5	0	2	112	0.00	30.133 
19:35	71.8	71.8	71.8	62	58.1	1	2	112	0.00	30.133 
19:40	71.6	71.6	71.6	62	57.9	1	3	112	0.00	30.133 
19:45	71.6	71.6	71.6	63	58.3	1	3	112	0.00	30.135 
19:50	71.3	71.3	71.3	62	57.6	1	3	90	0.00	30.135 
19:55	70.9	70.9	70.9	62	57.2	0	2	90	0.00	30.135 
20:00	70.8	70.8	70.8	62	57.1	0	2	90	0.00	30.135 
20:05	70.4	70.4	70.4	63	57.2	1	2	90	0.00	30.135 
20:10	70.1	70.1	70.1	64	57.3	0	1	90	0.00	30.135 
20:15	69.8	69.8	69.8	65	57.5	0	3	90	0.00	30.137 
20:20	69.4	69.4	69.4	65	57.1	1	3	90	0.00	30.137 
20:25	69.1	69.1	69.1	65	56.8	0	2	90	0.00	30.137 
20:30	68.9	68.9	68.9	65	56.6	1	4	90	0.00	30.139 
20:35	68.6	68.6	68.6	65	56.4	0	2	90	0.00	30.139 
20:40	68.3	68.3	68.3	66	56.5	0	2	90	0.00	30.139 
20:45	67.9	67.9	67.9	66	56.1	0	2	90	0.00	30.143 
20:50	67.8	67.8	67.8	67	56.4	0	2	90	0.00	30.143 
20:55	67.6	67.6	67.6	67	56.2	0	2	90	0.00	30.143 
21:00	67.3	67.3	67.3	68	56.4	1	2	90	0.00	30.149 
21:05	67.1	67.1	67.1	68	56.2	0	2	90	0.00	30.149 
21:10	66.9	66.9	66.9	68	56.0	1	2	90	0.00	30.149 
21:15	66.8	66.8	66.8	68	55.9	1	4	90	0.00	30.144 
21:20	66.8	66.8	66.8	68	55.9	0	2	90	0.00	30.144 
21:25	66.6	66.6	66.6	69	56.1	0	2	90	0.00	30.144 
21:30	66.4	66.4	66.4	69	55.9	0	2	90	0.00	30.149 
21:35	66.1	66.1	66.1	69	55.6	0	1	90	0.00	30.149 
21:40	66.0	66.0	66.0	70	55.9	0	0	---	0.00	30.149 
21:45	65.8	65.8	65.8	70	55.7	0	3	90	0.00	30.149 
21:50	65.8	65.8	65.8	70	55.7	0	2	90	0.00	30.149 
21:55	65.6	65.6	65.6	70	55.5	1	3	90	0.00	30.149 
22:00	65.6	65.6	65.6	70	55.5	0	2	90	0.00	30.152 
22:05	65.5	65.5	65.5	71	55.8	0	2	90	0.00	30.152 
22:10	65.3	65.3	65.3	71	55.6	0	1	90	0.00	30.152 
22:15	65.2	65.2	65.2	71	55.6	0	2	90	0.00	30.147 
22:20	65.0	65.0	65.0	71	55.4	0	1	90	0.00	30.147 
22:25	64.8	64.8	64.8	72	55.6	0	1	90	0.00	30.147 
22:30	64.7	64.7	64.7	72	55.5	0	0	---	0.00	30.148 
22:35	64.5	64.5	64.5	73	55.6	0	1	90	0.00	30.148 
22:40	64.3	64.3	64.3	73	55.5	0	1	90	0.00	30.148 
22:45	64.2	64.2	64.2	73	55.4	0	0	---	0.00	30.152 
22:50	64.0	64.0	64.0	73	55.2	0	1	90	0.00	30.152 
22:55	64.2	64.2	64.2	74	55.7	0	1	90	0.00	30.152 
23:00	64.2	64.2	64.2	74	55.7	0	1	90	0.00	30.161 
23:05	64.0	64.0	64.0	74	55.5	0	1	90	0.00	30.161 
23:10	64.0	64.0	64.0	74	55.5	0	1	90	0.00	30.161 
23:15	63.9	63.9	63.9	74	55.4	0	0	---	0.00	30.161 
23:20	63.9	63.9	63.9	74	55.4	0	1	90	0.00	30.161 
23:25	63.9	63.9	63.9	75	55.8	0	0	---	0.00	30.161 
23:30	63.7	63.7	63.7	75	55.6	0	1	90	0.00	30.162 
23:35	63.7	63.7	63.7	75	55.6	0	1	90	0.00	30.162 
23:40	63.5	63.5	63.5	76	55.8	0	1	90	0.00	30.162 
23:45	63.5	63.5	63.5	76	55.8	0	1	90	0.00	30.161 
23:50	63.4	63.4	63.4	77	56.1	0	1	90	0.00	30.161 
23:55	63.1	63.1	63.1	77	55.8	0	1	90	0.00	30.161 

CoCoRaHS
IN-AL-39
A2 Web Hosting
Creative Commons License
GoDaddy
search engine by freefind advanced

loaded 2018-11-15 16:18:01 • last modified 2010-11-18 10:43:29
Privacy PolicyDisclaimer
• wx.awcolley.com is powered by PmWiki v.2002016 •
• all content (unless otherwise noted) © 2018 A W Colley